Time;durP1;ratioP1;P1;durP2;ratioP2;P2;SDS_P1;SDS_P2;PMS_P1;PMS_P2;Temp;Humidity;BMP_temperature;BMP_pressure;BME280_temperature;BME280_humidity;BME280_pressure;Samples;Min_cycle;Max_cycle;Signal;HPM_P1;HPM_P2
2022/07/01 00:01:32;;;;;;;3.00;1.30;;;18.90;99.90;;;;;;5069485;28;20228;-55
2022/07/01 00:03:59;;;;;;;0.90;0.90;;;19.00;99.90;;;;;;5054059;28;20567;-55
2022/07/01 00:06:27;;;;;;;2.53;1.73;;;19.00;99.90;;;;;;5058400;28;20193;-55
2022/07/01 00:08:54;;;;;;;2.00;1.13;;;19.00;99.90;;;;;;5071548;28;20239;-55
2022/07/01 00:11:22;;;;;;;0.80;0.80;;;19.10;99.90;;;;;;5091608;22;21759;-49
2022/07/01 00:13:49;;;;;;;1.00;1.00;;;19.10;99.90;;;;;;5080954;28;20249;-49
2022/07/01 00:16:16;;;;;;;0.80;0.80;;;18.90;99.90;;;;;;5084634;28;20246;-49
2022/07/01 00:18:44;;;;;;;1.43;1.07;;;18.80;99.90;;;;;;5093269;28;20208;-49
2022/07/01 00:21:12;;;;;;;1.60;0.80;;;18.70;99.90;;;;;;5090471;28;20196;-50
2022/07/01 00:23:40;;;;;;;0.80;0.70;;;18.70;99.90;;;;;;5078332;28;20314;-49
2022/07/01 00:26:07;;;;;;;0.70;0.70;;;18.80;99.90;;;;;;5083063;28;20666;-49
2022/07/01 00:28:34;;;;;;;0.50;0.50;;;18.70;99.90;;;;;;5092955;28;20204;-49
2022/07/01 00:31:01;;;;;;;0.60;0.60;;;18.80;99.90;;;;;;5089014;28;20229;-50
2022/07/01 00:33:28;;;;;;;0.50;0.50;;;18.90;99.90;;;;;;5079514;28;20293;-50
2022/07/01 00:35:55;;;;;;;0.50;0.50;;;18.90;99.90;;;;;;5082449;28;20767;-50
2022/07/01 00:38:22;;;;;;;0.50;0.40;;;18.90;99.90;;;;;;5092794;28;20674;-50
2022/07/01 00:40:54;;;;;;;0.60;0.60;;;18.90;99.90;;;;;;5090907;28;20203;-49
2022/07/01 00:43:22;;;;;;;1.33;0.60;;;18.80;99.90;;;;;;5079457;28;20288;-49
2022/07/01 00:45:50;;;;;;;0.60;0.60;;;18.70;99.90;;;;;;5080756;28;20253;-49
2022/07/01 00:48:17;;;;;;;2.40;0.70;;;18.60;99.90;;;;;;5072356;28;20201;-49
2022/07/01 00:50:45;;;;;;;0.70;0.50;;;18.50;99.90;;;;;;5079689;28;20250;-50
2022/07/01 00:53:12;;;;;;;0.40;0.40;;;18.40;99.90;;;;;;5082323;28;20261;-49
2022/07/01 00:55:39;;;;;;;0.93;0.50;;;18.50;99.90;;;;;;5079502;28;20197;-49
2022/07/01 00:58:08;;;;;;;0.83;0.50;;;18.40;99.90;;;;;;5083550;28;20739;-49
2022/07/01 01:00:38;;;;;;;0.70;0.70;;;18.40;99.90;;;;;;5086654;28;20205;-49
2022/07/01 01:03:07;;;;;;;0.87;0.60;;;18.40;99.90;;;;;;5079112;28;20228;-50
2022/07/01 01:05:34;;;;;;;1.33;0.60;;;18.40;99.90;;;;;;5087372;28;20200;-49
2022/07/01 01:08:01;;;;;;;0.63;0.50;;;18.40;99.90;;;;;;5088273;28;20192;-49
2022/07/01 01:10:28;;;;;;;1.90;0.50;;;18.30;99.90;;;;;;5076827;28;20201;-49
2022/07/01 01:12:57;;;;;;;0.80;0.80;;;18.20;99.90;;;;;;5079421;28;20257;-49
2022/07/01 01:15:27;;;;;;;0.53;0.40;;;18.10;99.90;;;;;;5075987;28;20293;-49
2022/07/01 01:17:54;;;;;;;0.50;0.50;;;18.00;99.90;;;;;;5083693;28;20248;-50
2022/07/01 01:20:22;;;;;;;0.60;0.60;;;18.00;99.90;;;;;;5080616;28;20592;-49
2022/07/01 01:22:51;;;;;;;0.70;0.70;;;17.90;99.90;;;;;;5071104;28;20294;-49
2022/07/01 01:25:18;;;;;;;0.87;0.40;;;18.00;99.90;;;;;;5072023;28;20209;-49
2022/07/01 01:27:45;;;;;;;1.13;0.53;;;18.00;99.90;;;;;;5071616;28;20259;-50
2022/07/01 01:30:13;;;;;;;1.00;0.50;;;18.00;99.90;;;;;;5074620;28;20249;-48
2022/07/01 01:32:41;;;;;;;2.10;0.70;;;17.90;99.90;;;;;;5078974;28;20307;-48
2022/07/01 01:35:09;;;;;;;0.67;0.50;;;17.80;99.90;;;;;;5082124;28;20200;-48
2022/07/01 01:37:36;;;;;;;2.60;0.87;;;17.70;99.90;;;;;;5091997;28;20304;-49
2022/07/01 01:40:05;;;;;;;0.57;0.57;;;17.60;99.90;;;;;;5085845;28;20220;-49
2022/07/01 01:42:32;;;;;;;0.57;0.57;;;17.60;99.90;;;;;;5082550;28;20208;-48
2022/07/01 01:44:59;;;;;;;1.13;1.03;;;17.50;99.90;;;;;;5088426;28;20208;-48
2022/07/01 01:47:26;;;;;;;0.60;0.60;;;17.40;99.90;;;;;;5080067;28;20250;-49
2022/07/01 01:49:53;;;;;;;0.90;0.90;;;17.40;99.90;;;;;;5084811;28;20208;-49
2022/07/01 01:52:20;;;;;;;0.77;0.77;;;17.20;99.90;;;;;;5076602;28;20682;-49
2022/07/01 01:54:47;;;;;;;1.00;1.00;;;17.00;99.90;;;;;;5079825;28;20197;-48
2022/07/01 01:57:15;;;;;;;4.20;1.03;;;16.80;99.90;;;;;;5071460;28;20292;-49
2022/07/01 01:59:45;;;;;;;2.17;1.00;;;16.70;99.90;;;;;;5078226;28;20262;-49
2022/07/01 02:02:12;;;;;;;0.80;0.80;;;16.70;99.90;;;;;;5079109;28;20209;-49
2022/07/01 02:04:39;;;;;;;2.13;0.70;;;16.70;99.90;;;;;;5070434;28;20262;-49
2022/07/01 02:07:06;;;;;;;0.57;0.57;;;16.70;99.90;;;;;;5082718;28;20189;-48
2022/07/01 02:09:33;;;;;;;0.70;0.70;;;16.60;99.90;;;;;;5088940;28;20250;-49
2022/07/01 02:12:00;;;;;;;1.20;0.70;;;16.60;99.90;;;;;;5069225;28;20225;-48
2022/07/01 02:14:29;;;;;;;0.80;0.80;;;16.50;99.90;;;;;;5077497;28;20360;-48
2022/07/01 02:16:56;;;;;;;0.50;0.50;;;16.50;99.90;;;;;;5091466;28;20604;-48
2022/07/01 02:19:23;;;;;;;1.50;0.80;;;16.40;99.90;;;;;;5090848;28;20235;-49
2022/07/01 02:21:52;;;;;;;0.83;0.83;;;16.30;99.90;;;;;;5079275;28;20221;-49
2022/07/01 02:24:19;;;;;;;0.70;0.70;;;16.30;99.90;;;;;;5080495;28;20304;-48
2022/07/01 02:26:46;;;;;;;0.90;0.90;;;16.30;99.90;;;;;;5074559;28;20280;-49
2022/07/01 02:29:13;;;;;;;1.17;0.77;;;16.30;99.90;;;;;;5071443;28;20236;-48
2022/07/01 02:31:42;;;;;;;0.90;0.90;;;16.30;99.90;;;;;;5077850;28;20231;-49
2022/07/01 02:34:09;;;;;;;0.60;0.60;;;16.30;99.90;;;;;;5081748;28;20194;-48
2022/07/01 02:36:36;;;;;;;0.60;0.60;;;16.30;99.90;;;;;;5078963;28;20258;-48
2022/07/01 02:39:03;;;;;;;0.70;0.70;;;16.30;99.90;;;;;;5082876;28;20200;-49
2022/07/01 02:41:30;;;;;;;0.60;0.60;;;16.30;99.90;;;;;;5084239;28;20225;-48
2022/07/01 02:43:57;;;;;;;0.80;0.80;;;16.30;99.90;;;;;;5093433;28;20192;-49
2022/07/01 02:46:24;;;;;;;0.83;0.83;;;16.40;99.90;;;;;;5095077;28;20196;-49
2022/07/01 02:48:52;;;;;;;0.80;0.80;;;16.40;99.90;;;;;;5087272;28;20197;-49
2022/07/01 02:51:19;;;;;;;0.60;0.60;;;16.40;99.90;;;;;;5077349;28;20258;-49
2022/07/01 02:53:46;;;;;;;1.93;0.87;;;16.40;99.90;;;;;;5091588;28;20196;-48
2022/07/01 02:56:13;;;;;;;0.73;0.73;;;16.50;99.90;;;;;;5094768;28;20204;-48
2022/07/01 02:58:40;;;;;;;0.60;0.60;;;16.50;99.90;;;;;;5094859;28;20261;-49
2022/07/01 03:01:08;;;;;;;0.70;0.70;;;16.50;99.90;;;;;;5085887;28;20659;-49
2022/07/01 03:03:35;;;;;;;0.60;0.60;;;16.60;99.90;;;;;;5076270;28;20197;-48
2022/07/01 03:06:03;;;;;;;0.70;0.70;;;16.60;99.90;;;;;;5075494;28;20644;-49
2022/07/01 03:08:30;;;;;;;0.70;0.70;;;16.70;99.90;;;;;;5074342;28;20209;-49
2022/07/01 03:10:57;;;;;;;1.03;0.90;;;16.80;99.90;;;;;;5081737;28;20199;-49
2022/07/01 03:13:24;;;;;;;0.90;0.90;;;16.70;99.90;;;;;;5087523;28;20223;-49
2022/07/01 03:15:51;;;;;;;3.60;1.30;;;16.80;99.90;;;;;;5083530;28;20253;-49
2022/07/01 03:18:18;;;;;;;0.80;0.70;;;16.80;99.90;;;;;;5087467;28;20241;-48
2022/07/01 03:20:45;;;;;;;0.90;0.90;;;16.80;99.90;;;;;;5085083;28;20201;-49
2022/07/01 03:23:13;;;;;;;1.23;1.10;;;16.80;99.90;;;;;;5085207;28;20208;-49
2022/07/01 03:25:40;;;;;;;0.80;0.80;;;16.90;99.90;;;;;;5094356;28;20252;-48
2022/07/01 03:28:08;;;;;;;2.33;1.00;;;16.90;99.90;;;;;;5085060;28;20264;-49
2022/07/01 03:30:35;;;;;;;1.40;0.87;;;16.80;99.90;;;;;;5086845;28;20236;-48
2022/07/01 03:33:02;;;;;;;0.80;0.80;;;16.90;99.90;;;;;;5075830;28;20235;-49
2022/07/01 03:35:39;;;;;;;0.60;0.60;;;16.80;99.90;;;;;;5079602;28;20197;-49
2022/07/01 03:38:07;;;;;;;1.00;1.00;;;16.80;99.90;;;;;;5073908;28;20208;-49
2022/07/01 03:40:35;;;;;;;2.73;0.90;;;16.90;99.90;;;;;;5071704;28;20666;-49
2022/07/01 03:43:02;;;;;;;1.00;1.00;;;16.90;99.90;;;;;;5072655;28;20695;-49
2022/07/01 03:45:30;;;;;;;0.70;0.70;;;16.90;99.90;;;;;;5073663;28;20205;-48
2022/07/01 03:47:57;;;;;;;1.30;1.30;;;16.90;99.90;;;;;;5073569;28;20567;-49
2022/07/01 03:50:25;;;;;;;2.70;0.83;;;17.00;99.90;;;;;;5078443;28;20257;-48
2022/07/01 03:54:29;;;;;;;0.97;0.97;;;17.00;99.90;;;;;;5074335;28;20575;-48
2022/07/01 03:55:42;;;;;;;1.10;1.10;;;17.00;99.90;;;;;;5077076;28;20201;-49
2022/07/01 03:58:09;;;;;;;4.07;1.13;;;17.00;99.90;;;;;;5073647;28;20201;-49
2022/07/01 04:00:37;;;;;;;1.13;1.13;;;17.10;99.90;;;;;;5072823;28;20205;-49
2022/07/01 04:03:05;;;;;;;2.23;1.97;;;17.10;99.90;;;;;;5075834;28;20263;-49
2022/07/01 04:05:35;;;;;;;2.03;1.93;;;17.20;99.90;;;;;;5058860;28;20289;-48
2022/07/01 04:08:03;;;;;;;1.70;1.60;;;17.20;99.90;;;;;;5054924;28;20213;-48
2022/07/01 04:10:32;;;;;;;1.30;1.30;;;17.20;99.90;;;;;;5058495;28;20308;-48
2022/07/01 04:13:01;;;;;;;1.40;1.30;;;17.20;99.90;;;;;;5069594;28;20228;-49
2022/07/01 04:15:28;;;;;;;1.10;1.00;;;17.10;99.90;;;;;;5071109;28;20285;-48
2022/07/01 04:17:55;;;;;;;1.53;1.43;;;17.10;99.90;;;;;;5066676;28;20198;-49
2022/07/01 04:20:22;;;;;;;0.87;0.87;;;17.10;99.90;;;;;;5053520;28;20267;-49
2022/07/01 04:22:48;;;;;;;1.00;1.00;;;17.10;99.90;;;;;;5061454;28;20289;-49
2022/07/01 04:25:15;;;;;;;1.30;1.17;;;17.10;99.90;;;;;;5056107;28;20680;-48
2022/07/01 04:27:42;;;;;;;2.00;1.43;;;17.00;99.90;;;;;;5052038;28;20193;-48
2022/07/01 04:30:12;;;;;;;1.37;0.97;;;17.00;99.90;;;;;;5054504;28;20213;-48
2022/07/01 04:32:38;;;;;;;2.13;2.03;;;17.00;99.90;;;;;;5061941;28;20218;-48
2022/07/01 04:35:06;;;;;;;2.27;1.17;;;16.90;99.90;;;;;;5060842;28;20204;-49
2022/07/01 04:37:33;;;;;;;2.37;1.40;;;16.80;99.90;;;;;;5062781;28;20194;-48
2022/07/01 04:40:00;;;;;;;1.90;1.37;;;16.80;99.90;;;;;;5056783;28;20662;-49
2022/07/01 04:42:27;;;;;;;1.73;1.50;;;16.80;99.90;;;;;;5069895;28;20303;-49
2022/07/01 04:44:54;;;;;;;1.37;1.20;;;16.80;99.90;;;;;;5067864;28;20246;-49
2022/07/01 04:47:23;;;;;;;2.00;1.30;;;16.80;99.90;;;;;;5051656;28;20243;-49
2022/07/01 04:49:50;;;;;;;1.47;1.43;;;16.80;99.90;;;;;;5070427;28;20203;-49
2022/07/01 04:52:17;;;;;;;1.23;1.07;;;16.70;99.90;;;;;;5065393;28;20307;-48
2022/07/01 04:54:44;;;;;;;1.73;1.33;;;16.60;99.90;;;;;;5051600;28;20636;-49
2022/07/01 04:57:11;;;;;;;1.90;0.90;;;16.60;99.90;;;;;;5053274;28;20622;-48
2022/07/01 04:59:38;;;;;;;2.00;1.43;;;16.60;99.90;;;;;;5053769;28;20236;-49
2022/07/01 05:02:05;;;;;;;1.50;1.23;;;16.60;99.90;;;;;;5082588;28;20250;-49
2022/07/01 05:04:33;;;;;;;1.77;1.27;;;16.60;99.90;;;;;;5072695;28;20525;-49
2022/07/01 05:07:00;;;;;;;1.37;1.27;;;16.60;99.90;;;;;;5069292;28;20672;-49
2022/07/01 05:09:27;;;;;;;1.33;0.90;;;16.60;99.90;;;;;;5057908;28;20225;-49
2022/07/01 05:11:54;;;;;;;2.20;0.60;;;16.50;99.90;;;;;;5072126;28;20241;-49
2022/07/01 05:14:21;;;;;;;1.27;0.40;;;16.40;99.90;;;;;;5069286;28;20626;-49
2022/07/01 05:16:48;;;;;;;1.77;0.30;;;16.20;99.90;;;;;;5054717;28;20194;-48
2022/07/01 05:22:02;;;;;;;0.20;0.20;;;16.10;99.90;;;;;;5058233;28;20224;-49
2022/07/01 05:24:31;;;;;;;1.10;0.20;;;16.20;99.90;;;;;;5058489;28;20233;-48
2022/07/01 05:26:59;;;;;;;1.90;0.30;;;16.20;99.90;;;;;;5066909;28;20223;-48
2022/07/01 05:29:27;;;;;;;0.63;0.20;;;16.10;99.90;;;;;;5052485;28;20210;-48
2022/07/01 05:31:54;;;;;;;0.33;0.10;;;16.10;99.90;;;;;;5053865;28;20213;-49
2022/07/01 05:34:22;;;;;;;0.20;0.10;;;16.00;99.90;;;;;;5051415;28;20260;-49
2022/07/01 05:36:49;;;;;;;2.03;0.10;;;16.00;99.90;;;;;;5051288;28;20664;-49
2022/07/01 05:39:18;;;;;;;0.10;0.10;;;16.00;99.90;;;;;;5051016;28;20194;-50
2022/07/01 05:41:45;;;;;;;0.10;0.10;;;16.00;99.90;;;;;;5051394;28;20213;-49
2022/07/01 05:44:12;;;;;;;1.23;0.10;;;16.00;99.90;;;;;;5068117;28;20286;-49
2022/07/01 05:46:40;;;;;;;0.00;0.00;;;15.80;99.90;;;;;;5069604;28;20247;-49
2022/07/01 05:49:07;;;;;;;2.10;0.10;;;15.50;99.90;;;;;;5069416;28;20280;-49
2022/07/01 05:51:34;;;;;;;0.40;0.00;;;15.70;99.90;;;;;;5058479;28;20717;-49
2022/07/01 05:54:01;;;;;;;0.10;0.10;;;15.60;99.90;;;;;;5062671;28;20218;-49
2022/07/01 05:56:29;;;;;;;0.10;0.10;;;15.50;99.90;;;;;;5050787;28;20672;-49
2022/07/01 05:58:56;;;;;;;0.10;0.10;;;15.50;99.90;;;;;;5050577;28;20201;-49
2022/07/01 06:01:24;;;;;;;0.50;0.13;;;15.50;99.90;;;;;;5068381;28;20731;-49
2022/07/01 06:03:51;;;;;;;1.13;0.10;;;15.50;99.90;;;;;;5066107;28;20648;-50
2022/07/01 06:06:19;;;;;;;0.30;0.20;;;15.50;99.90;;;;;;5068798;28;20201;-50
2022/07/01 06:08:46;;;;;;;0.17;0.17;;;15.50;99.90;;;;;;5062606;28;20205;-48
2022/07/01 06:11:14;;;;;;;0.20;0.10;;;15.30;99.90;;;;;;5067304;28;20197;-49
2022/07/01 06:13:43;;;;;;;0.40;0.20;;;15.30;99.90;;;;;;5075058;22;20230;-57
2022/07/01 06:16:10;;;;;;;0.20;0.20;;;15.40;99.90;;;;;;5048542;28;20233;-57
2022/07/01 06:18:37;;;;;;;2.23;0.20;;;15.40;99.90;;;;;;5051777;28;20202;-57
2022/07/01 06:21:04;;;;;;;1.20;0.28;;;15.50;99.90;;;;;;5053216;28;21939;-57
2022/07/01 06:23:31;;;;;;;0.87;0.20;;;15.50;99.90;;;;;;5052646;28;20275;-58
2022/07/01 06:25:58;;;;;;;0.10;0.10;;;15.50;99.90;;;;;;5052355;28;20205;-57
2022/07/01 06:28:29;;;;;;;0.40;0.10;;;15.50;99.90;;;;;;5051836;28;20225;-58
2022/07/01 06:30:58;;;;;;;0.93;0.10;;;15.30;99.90;;;;;;5053338;28;20686;-57
2022/07/01 06:33:29;;;;;;;0.20;0.10;;;15.30;99.90;;;;;;5048031;28;20316;-57
2022/07/01 06:35:56;;;;;;;0.50;0.10;;;15.40;99.90;;;;;;5053715;28;20194;-57
2022/07/01 06:38:23;;;;;;;0.13;0.13;;;15.40;99.90;;;;;;5052382;28;20205;-57
2022/07/01 06:43:31;;;;;;;0.10;0.10;;;15.30;99.90;;;;;;5050302;28;20279;-57
2022/07/01 06:46:00;;;;;;;0.10;0.10;;;15.20;99.90;;;;;;5053188;28;20198;-57
2022/07/01 06:48:27;;;;;;;0.40;0.20;;;15.30;99.90;;;;;;5048420;28;20213;-56
2022/07/01 06:50:54;;;;;;;0.10;0.10;;;15.50;99.90;;;;;;5049679;28;20209;-56
2022/07/01 06:53:20;;;;;;;0.10;0.10;;;15.60;99.90;;;;;;5047854;28;20668;-57
2022/07/01 06:55:47;;;;;;;0.40;0.30;;;15.70;99.90;;;;;;5051205;28;20283;-57
2022/07/01 06:58:14;;;;;;;0.47;0.47;;;15.70;99.90;;;;;;5054143;28;20201;-57
2022/07/01 07:00:41;;;;;;;0.20;0.10;;;15.60;99.90;;;;;;5053367;28;20209;-57
2022/07/01 07:03:10;;;;;;;0.10;0.10;;;15.60;99.90;;;;;;5045055;28;20216;-57
2022/07/01 07:05:37;;;;;;;0.10;0.10;;;15.50;99.90;;;;;;5054194;28;20201;-57
2022/07/01 07:08:04;;;;;;;0.33;0.20;;;15.50;99.90;;;;;;5054121;28;20197;-57
2022/07/01 07:10:31;;;;;;;0.57;0.10;;;15.40;99.90;;;;;;5044999;28;20664;-57
2022/07/01 07:12:58;;;;;;;0.20;0.20;;;15.50;99.90;;;;;;5051355;28;20691;-57
2022/07/01 07:15:25;;;;;;;0.43;0.10;;;15.60;99.90;;;;;;5053895;28;20687;-57
2022/07/01 07:17:54;;;;;;;1.07;0.10;;;15.70;99.90;;;;;;5053713;28;20206;-57
2022/07/01 07:20:22;;;;;;;1.17;0.20;;;15.70;99.90;;;;;;5048491;28;20206;-57
2022/07/01 07:22:49;;;;;;;0.10;0.10;;;15.70;99.90;;;;;;5049695;28;20264;-57
2022/07/01 07:25:16;;;;;;;0.20;0.10;;;15.70;99.90;;;;;;5053481;28;20197;-57
2022/07/01 07:27:46;;;;;;;2.03;0.93;;;15.60;99.90;;;;;;5052793;28;20224;-56
2022/07/01 07:30:13;;;;;;;0.30;0.10;;;15.60;99.90;;;;;;5049280;28;20195;-56
2022/07/01 07:32:40;;;;;;;0.57;0.20;;;15.60;99.90;;;;;;5048620;28;20641;-56
2022/07/01 07:35:08;;;;;;;1.87;0.20;;;15.60;99.90;;;;;;5053695;28;20198;-56
2022/07/01 07:37:36;;;;;;;1.70;0.20;;;15.60;99.90;;;;;;5053412;28;20198;-56
2022/07/01 07:40:06;;;;;;;0.10;0.10;;;15.60;99.90;;;;;;5050117;28;20745;-56
2022/07/01 07:42:33;;;;;;;0.17;0.10;;;15.50;99.90;;;;;;5047291;28;20719;-56
2022/07/01 07:45:01;;;;;;;1.70;0.20;;;15.50;99.90;;;;;;5044597;28;20198;-56
2022/07/01 07:47:28;;;;;;;0.57;0.10;;;15.50;99.90;;;;;;5053074;28;20289;-56
2022/07/01 07:49:55;;;;;;;0.55;0.30;;;15.60;99.90;;;;;;5044497;28;20460;-56
2022/07/01 07:52:22;;;;;;;0.93;0.20;;;15.60;99.90;;;;;;5051044;28;20226;-57
2022/07/01 07:54:51;;;;;;;1.60;0.10;;;15.50;99.90;;;;;;5052634;28;20225;-57
2022/07/01 07:57:18;;;;;;;0.10;0.10;;;15.60;99.90;;;;;;5052914;28;20263;-57
2022/07/01 07:59:45;;;;;;;0.20;0.10;;;15.50;99.90;;;;;;5050619;28;20496;-58
2022/07/01 08:02:12;;;;;;;0.23;0.17;;;15.50;99.90;;;;;;5049135;28;20260;-58
2022/07/01 08:04:39;;;;;;;1.03;0.10;;;15.30;99.90;;;;;;5051098;28;20544;-58
2022/07/01 08:07:06;;;;;;;0.10;0.10;;;15.40;99.90;;;;;;5050845;28;20206;-59
2022/07/01 08:09:34;;;;;;;0.17;0.17;;;15.40;99.90;;;;;;5051401;28;20243;-58
2022/07/01 08:12:03;;;;;;;0.93;0.73;;;15.50;99.90;;;;;;5048870;28;20934;-58
2022/07/01 08:14:30;;;;;;;1.07;0.30;;;15.60;99.90;;;;;;5051339;28;20214;-57
2022/07/01 08:16:57;;;;;;;0.10;0.10;;;15.70;99.90;;;;;;5050824;28;20205;-57
2022/07/01 08:19:24;;;;;;;1.43;0.10;;;15.70;99.90;;;;;;5052430;28;20248;-56
2022/07/01 08:21:51;;;;;;;0.33;0.20;;;15.70;99.90;;;;;;5048973;28;20197;-56
2022/07/01 08:24:18;;;;;;;0.87;0.20;;;15.90;99.90;;;;;;5050863;28;20410;-57
2022/07/01 08:26:45;;;;;;;0.20;0.20;;;16.10;99.90;;;;;;5050610;28;20194;-56
2022/07/01 08:29:14;;;;;;;2.63;0.13;;;16.20;99.90;;;;;;5050693;28;20205;-57
2022/07/01 08:31:41;;;;;;;0.10;0.10;;;16.40;99.90;;;;;;5049218;28;20594;-56
2022/07/01 08:34:09;;;;;;;0.83;0.33;;;16.60;99.90;;;;;;5050797;28;20213;-56
2022/07/01 08:36:36;;;;;;;0.67;0.10;;;16.60;99.90;;;;;;5050753;28;20244;-56
2022/07/01 08:39:03;;;;;;;0.10;0.10;;;16.50;99.90;;;;;;5050626;28;20243;-57
2022/07/01 08:41:31;;;;;;;0.60;0.20;;;16.50;99.90;;;;;;5049028;28;20204;-57
2022/07/01 08:44:01;;;;;;;0.20;0.10;;;16.50;99.90;;;;;;5050228;28;20203;-57
2022/07/01 08:46:30;;;;;;;2.50;0.10;;;16.60;99.90;;;;;;5050535;28;20198;-56
2022/07/01 08:48:57;;;;;;;0.10;0.10;;;16.70;99.90;;;;;;5046540;28;20281;-57
2022/07/01 08:51:24;;;;;;;0.10;0.10;;;16.70;99.90;;;;;;5045326;28;20205;-57
2022/07/01 08:53:51;;;;;;;0.67;0.10;;;16.80;99.90;;;;;;5049742;28;20243;-57
2022/07/01 08:59:05;;;;;;;0.10;0.10;;;17.00;99.90;;;;;;5050485;28;20201;-57
2022/07/01 09:01:34;;;;;;;0.20;0.20;;;17.00;99.90;;;;;;5044890;28;20197;-57
2022/07/01 09:04:16;;;;;;;0.20;0.10;;;17.00;99.90;;;;;;5050033;28;20194;-57
2022/07/01 09:06:43;;;;;;;0.10;0.10;;;17.10;99.90;;;;;;5049653;28;20197;-57
2022/07/01 09:09:15;;;;;;;0.10;0.10;;;17.00;99.90;;;;;;5049561;28;20197;-57
2022/07/01 09:11:53;;;;;;;0.43;0.43;;;17.10;99.90;;;;;;5048458;28;20267;-57
2022/07/01 09:14:21;;;;;;;0.20;0.20;;;17.10;99.90;;;;;;5049192;28;20256;-57
2022/07/01 09:16:51;;;;;;;0.20;0.20;;;17.20;99.90;;;;;;5049812;28;20198;-57
2022/07/01 09:19:21;;;;;;;1.80;0.13;;;17.40;99.90;;;;;;5049538;28;20220;-57
2022/07/01 09:21:52;;;;;;;0.10;0.10;;;17.70;99.90;;;;;;5049516;28;20202;-57
2022/07/01 09:24:28;;;;;;;0.30;0.20;;;17.80;99.90;;;;;;5049950;28;20217;-56
2022/07/01 09:26:57;;;;;;;0.53;0.30;;;17.80;99.90;;;;;;5048868;28;20201;-56
2022/07/01 09:29:28;;;;;;;0.20;0.20;;;17.70;99.90;;;;;;5049115;28;20201;-56
2022/07/01 09:31:56;;;;;;;0.10;0.10;;;17.70;99.90;;;;;;5049376;28;20245;-57
2022/07/01 09:34:23;;;;;;;2.03;1.67;;;17.80;99.90;;;;;;5047784;28;20303;-57
2022/07/01 09:36:55;;;;;;;1.03;0.20;;;18.00;99.90;;;;;;5049761;28;20202;-56
2022/07/01 09:39:22;;;;;;;0.20;0.20;;;18.20;99.90;;;;;;5047738;28;20213;-56
2022/07/01 09:41:49;;;;;;;0.30;0.30;;;18.10;99.90;;;;;;5047073;28;20221;-56
2022/07/01 09:44:16;;;;;;;0.23;0.20;;;17.80;99.90;;;;;;5049369;28;20297;-56
2022/07/01 09:46:54;;;;;;;0.20;0.17;;;17.70;99.90;;;;;;5051194;28;20281;-56
2022/07/01 09:49:23;;;;;;;0.10;0.10;;;17.50;99.90;;;;;;5041510;28;20205;-56
2022/07/01 09:51:51;;;;;;;0.20;0.20;;;17.30;99.90;;;;;;5048378;28;20275;-56
2022/07/01 09:54:18;;;;;;;1.80;0.20;;;17.20;99.90;;;;;;5050859;28;20276;-58
2022/07/01 09:56:45;;;;;;;0.10;0.10;;;17.20;99.90;;;;;;5051001;28;20741;-57
2022/07/01 09:59:12;;;;;;;0.10;0.10;;;17.20;99.90;;;;;;5046777;28;20612;-56
2022/07/01 10:01:40;;;;;;;0.77;0.30;;;17.00;99.90;;;;;;5048200;28;20197;-57
2022/07/01 10:04:09;;;;;;;0.73;0.20;;;17.00;99.90;;;;;;5050909;28;20296;-57
2022/07/01 10:07:15;;;;;;;0.43;0.17;;;17.10;99.90;;;;;;5050075;28;20687;-57
2022/07/01 10:09:57;;;;;;;0.13;0.13;;;17.10;99.90;;;;;;5047312;28;20301;-57
2022/07/01 10:12:37;;;;;;;0.17;0.17;;;17.30;99.90;;;;;;5050077;28;20248;-57
2022/07/01 10:15:06;;;;;;;0.47;0.30;;;17.40;99.90;;;;;;5050732;28;20297;-57
2022/07/01 10:17:37;;;;;;;0.43;0.20;;;17.30;99.90;;;;;;5043925;28;20241;-57
2022/07/01 10:20:10;;;;;;;1.80;0.30;;;17.40;99.90;;;;;;5050205;28;20214;-57
2022/07/01 10:22:39;;;;;;;0.20;0.20;;;17.50;99.90;;;;;;5049986;28;20226;-57
2022/07/01 10:25:31;;;;;;;0.30;0.30;;;17.50;99.90;;;;;;5050841;28;20229;-56
2022/07/01 10:28:20;;;;;;;2.70;0.17;;;17.40;99.90;;;;;;5049863;28;20263;-56
2022/07/01 10:30:51;;;;;;;0.20;0.20;;;17.30;99.90;;;;;;5050835;28;20743;-56
2022/07/01 10:33:43;;;;;;;0.30;0.30;;;17.30;99.90;;;;;;5050104;28;20245;-56
2022/07/01 10:36:28;;;;;;;1.90;0.40;;;17.30;99.90;;;;;;5049876;28;20206;-56
2022/07/01 10:39:14;;;;;;;0.77;0.40;;;17.10;99.90;;;;;;5050670;28;20198;-56
2022/07/01 10:41:56;;;;;;;2.50;0.30;;;16.70;99.90;;;;;;5049958;28;20640;-56
2022/07/01 10:44:24;;;;;;;0.20;0.20;;;16.60;99.90;;;;;;5050723;28;20244;-57
2022/07/01 10:46:57;;;;;;;0.80;0.60;;;16.60;99.90;;;;;;5048934;28;20221;-56
2022/07/01 10:50:06;;;;;;;0.20;0.20;;;16.50;99.90;;;;;;5047049;28;20198;-56
2022/07/01 10:52:33;;;;;;;0.53;0.30;;;16.40;99.90;;;;;;5029989;28;20650;-57
2022/07/01 10:55:04;;;;;;;0.50;0.30;;;16.20;99.90;;;;;;5031691;28;20222;-57
2022/07/01 10:57:34;;;;;;;0.30;0.30;;;16.30;99.90;;;;;;5043770;28;20210;-57
2022/07/01 11:00:31;;;;;;;0.30;0.30;;;16.30;99.90;;;;;;5049390;28;20202;-57
2022/07/01 11:03:07;;;;;;;0.50;0.23;;;16.20;99.90;;;;;;5053047;28;20229;-57
2022/07/01 11:05:36;;;;;;;0.43;0.43;;;16.10;99.90;;;;;;5055986;28;20205;-57
2022/07/01 11:08:05;;;;;;;1.60;0.50;;;15.90;99.90;;;;;;5047007;28;20202;-57
2022/07/01 11:10:34;;;;;;;1.00;0.40;;;15.80;99.90;;;;;;5052856;28;20201;-56
2022/07/01 11:13:01;;;;;;;1.10;0.37;;;15.70;99.90;;;;;;5044145;28;20637;-57
2022/07/01 11:15:29;;;;;;;0.60;0.60;;;15.70;99.90;;;;;;5053614;28;20287;-57
2022/07/01 11:17:58;;;;;;;0.43;0.43;;;15.70;99.90;;;;;;5044555;28;20210;-57
2022/07/01 11:20:26;;;;;;;0.40;0.40;;;15.50;99.90;;;;;;5053305;28;20198;-57
2022/07/01 11:22:53;;;;;;;0.60;0.60;;;15.40;99.90;;;;;;5052564;28;20260;-56
2022/07/01 11:25:23;;;;;;;0.57;0.57;;;15.50;99.90;;;;;;5053650;28;20198;-57
2022/07/01 11:27:53;;;;;;;0.70;0.70;;;15.40;99.90;;;;;;5038193;28;20199;-57
2022/07/01 11:30:21;;;;;;;0.87;0.60;;;15.40;99.90;;;;;;5053337;28;20260;-57
2022/07/01 11:32:49;;;;;;;1.20;0.63;;;15.50;99.90;;;;;;5052721;28;20263;-57
2022/07/01 11:40:56;;;;;;;2.83;0.50;;;15.70;99.90;;;;;;5053159;28;20205;-57
2022/07/01 11:43:26;;;;;;;0.40;0.40;;;15.70;99.90;;;;;;5052509;28;20279;-57
2022/07/01 11:45:53;;;;;;;0.40;0.30;;;15.60;99.90;;;;;;5053208;28;20247;-56
2022/07/01 11:48:38;;;;;;;0.67;0.67;;;15.60;99.90;;;;;;5044183;28;20194;-56
2022/07/01 11:51:11;;;;;;;0.73;0.40;;;15.60;99.90;;;;;;5052529;28;20214;-57
2022/07/01 11:53:39;;;;;;;0.30;0.30;;;15.60;99.90;;;;;;5053339;28;20222;-57
2022/07/01 11:56:07;;;;;;;0.67;0.23;;;15.60;99.90;;;;;;5052788;28;20352;-57
2022/07/01 11:58:50;;;;;;;0.73;0.40;;;15.70;99.90;;;;;;5042806;28;20660;-57
2022/07/01 12:01:23;;;;;;;0.30;0.30;;;15.70;99.90;;;;;;5045139;28;20197;-56
2022/07/01 12:03:50;;;;;;;0.57;0.27;;;15.70;99.90;;;;;;5052322;28;20707;-56
2022/07/01 12:06:18;;;;;;;0.40;0.40;;;15.90;99.90;;;;;;5044175;28;20618;-56
2022/07/01 12:08:46;;;;;;;0.77;0.40;;;15.90;99.90;;;;;;5052645;28;20281;-56
2022/07/01 12:11:14;;;;;;;0.53;0.27;;;15.90;99.90;;;;;;5052063;28;20579;-56
2022/07/01 12:13:41;;;;;;;0.40;0.40;;;16.00;99.90;;;;;;5088837;22;20235;-48
2022/07/01 12:16:10;;;;;;;0.30;0.30;;;16.10;99.90;;;;;;5063796;28;20286;-48
2022/07/01 12:18:37;;;;;;;0.67;0.23;;;16.20;99.90;;;;;;5072820;28;20269;-48
2022/07/01 12:21:05;;;;;;;0.20;0.20;;;16.10;99.90;;;;;;5072738;28;20201;-48
2022/07/01 12:23:36;;;;;;;0.30;0.30;;;16.20;99.90;;;;;;5068653;28;20220;-48
2022/07/01 12:26:05;;;;;;;0.20;0.20;;;16.20;99.90;;;;;;5064458;28;20197;-48
2022/07/01 12:28:34;;;;;;;0.83;0.10;;;16.20;99.90;;;;;;5063263;28;20198;-48
2022/07/01 12:31:09;;;;;;;0.20;0.20;;;16.20;99.90;;;;;;5064582;28;20664;-48
2022/07/01 12:33:40;;;;;;;0.20;0.20;;;16.20;99.90;;;;;;5052837;28;20764;-49
2022/07/01 12:36:08;;;;;;;0.70;0.30;;;16.10;99.90;;;;;;5053552;28;20247;-49
2022/07/01 12:38:35;;;;;;;0.30;0.30;;;16.10;99.90;;;;;;5057440;28;20230;-48
2022/07/01 12:41:02;;;;;;;0.30;0.20;;;16.10;99.90;;;;;;5042937;28;20669;-48
2022/07/01 12:43:34;;;;;;;1.07;0.40;;;16.30;99.90;;;;;;5037124;28;20272;-48
2022/07/01 12:46:02;;;;;;;0.47;0.30;;;16.40;99.90;;;;;;5044043;28;20272;-49
2022/07/01 12:48:29;;;;;;;0.30;0.30;;;16.40;99.90;;;;;;5053340;28;20773;-49
2022/07/01 12:50:59;;;;;;;0.87;0.50;;;16.50;99.90;;;;;;5032671;28;20285;-48
2022/07/01 12:53:29;;;;;;;0.37;0.37;;;16.50;99.90;;;;;;5031924;28;20265;-48
2022/07/01 12:55:58;;;;;;;0.30;0.30;;;16.60;99.90;;;;;;5032328;28;20642;-48
2022/07/01 12:58:26;;;;;;;1.10;0.40;;;16.70;99.90;;;;;;5052833;28;20201;-49
2022/07/01 13:00:54;;;;;;;1.00;0.40;;;16.80;99.90;;;;;;5063967;28;20671;-49
2022/07/01 13:03:23;;;;;;;1.13;0.50;;;16.90;99.90;;;;;;5058556;28;20222;-49
2022/07/01 13:05:51;;;;;;;0.40;0.40;;;17.00;99.90;;;;;;5061716;28;20197;-49
2022/07/01 13:08:20;;;;;;;1.63;0.60;;;17.00;99.90;;;;;;5052070;28;20259;-48
2022/07/01 13:10:48;;;;;;;0.60;0.50;;;17.00;99.90;;;;;;5052007;28;20296;-49